createdAt,value
2018-12-17T00:01:47.691Z,50.70
2018-12-17T00:04:16.742Z,53.13
2018-12-17T00:06:45.647Z,56.57
2018-12-17T00:09:14.777Z,51.33
2018-12-17T00:11:43.999Z,51.97
2018-12-17T00:14:12.880Z,53.40
2018-12-17T00:16:41.948Z,54.33
2018-12-17T00:19:11.864Z,52.00
2018-12-17T00:21:41.015Z,49.93
2018-12-17T00:24:09.935Z,47.60
2018-12-17T00:26:38.833Z,54.90
2018-12-17T00:29:07.881Z,56.07
2018-12-17T00:31:37.210Z,52.30
2018-12-17T00:34:06.173Z,53.90
2018-12-17T00:36:35.091Z,56.17
2018-12-17T00:39:07.183Z,52.50
2018-12-17T00:41:36.551Z,55.43
2018-12-17T00:44:05.805Z,58.50
2018-12-17T00:46:34.825Z,54.30
2018-12-17T00:49:03.770Z,61.93
2018-12-17T00:51:32.902Z,52.03
2018-12-17T00:54:01.922Z,58.50
2018-12-17T00:56:30.852Z,54.77
2018-12-17T00:58:59.812Z,58.10
2018-12-17T01:01:28.686Z,65.63
2018-12-17T01:03:57.599Z,67.43
2018-12-17T01:06:26.565Z,65.60
2018-12-17T01:08:55.515Z,62.37
2018-12-17T01:11:24.377Z,64.53
2018-12-17T01:13:53.418Z,65.00
2018-12-17T01:16:22.401Z,70.37
2018-12-17T01:18:51.433Z,70.37
2018-12-17T01:21:20.993Z,74.90
2018-12-17T01:23:50.426Z,65.07
2018-12-17T01:26:20.983Z,60.70
2018-12-17T01:28:50.292Z,73.93
2018-12-17T01:31:19.264Z,70.23
2018-12-17T01:33:48.806Z,67.77
2018-12-17T01:36:17.810Z,80.77
2018-12-17T01:38:46.859Z,77.43
2018-12-17T01:41:15.984Z,70.13
2018-12-17T01:43:45.242Z,73.73
2018-12-17T01:46:14.186Z,68.30
2018-12-17T01:48:43.880Z,77.57
2018-12-17T01:51:12.877Z,64.50
2018-12-17T01:53:41.777Z,74.03
2018-12-17T01:56:10.795Z,71.37
2018-12-17T01:58:39.727Z,70.33
2018-12-17T02:01:08.674Z,73.03
2018-12-17T02:03:37.675Z,75.37
2018-12-17T02:06:06.818Z,69.50
2018-12-17T02:08:35.959Z,59.03
2018-12-17T02:11:05.252Z,77.40
2018-12-17T02:13:34.287Z,65.07
2018-12-17T02:16:03.178Z,71.50
2018-12-17T02:18:32.194Z,64.50
2018-12-17T02:21:01.371Z,74.87
2018-12-17T02:23:30.570Z,78.33
2018-12-17T02:25:59.517Z,73.23
2018-12-17T02:28:28.467Z,77.23
2018-12-17T02:30:57.379Z,75.43
2018-12-17T02:33:26.605Z,82.50
2018-12-17T02:35:55.537Z,69.93
2018-12-17T02:38:24.527Z,73.83
2018-12-17T02:40:53.443Z,73.03
2018-12-17T02:43:22.423Z,78.47
2018-12-17T02:45:51.928Z,86.07
2018-12-17T02:48:20.850Z,79.43
2018-12-17T02:50:49.801Z,78.23
2018-12-17T02:53:18.670Z,79.00
2018-12-17T02:55:48.118Z,70.00
2018-12-17T02:58:17.092Z,79.93
2018-12-17T03:00:46.143Z,75.10
2018-12-17T03:03:15.148Z,81.30
2018-12-17T03:05:44.634Z,88.00
2018-12-17T03:08:13.646Z,79.60
2018-12-17T03:10:42.650Z,83.20
2018-12-17T03:13:11.949Z,82.77
2018-12-17T03:15:40.846Z,79.80
2018-12-17T03:18:09.721Z,86.57
2018-12-17T03:20:39.243Z,90.90
2018-12-17T03:23:08.539Z,81.37
2018-12-17T03:25:37.461Z,88.80
2018-12-17T03:28:06.643Z,93.33
2018-12-17T03:30:35.664Z,99.53
2018-12-17T03:33:04.617Z,108.50
2018-12-17T03:35:33.677Z,98.70
2018-12-17T03:38:02.591Z,97.93
2018-12-17T03:40:31.679Z,99.77
2018-12-17T03:43:00.601Z,100.53
2018-12-17T03:45:29.549Z,109.87
2018-12-17T03:47:58.528Z,96.77
2018-12-17T03:50:27.470Z,104.43
2018-12-17T03:52:56.538Z,101.43
2018-12-17T03:55:25.453Z,97.47
2018-12-17T03:57:54.712Z,102.27
2018-12-17T04:00:23.876Z,95.00
2018-12-17T04:02:53.102Z,108.40
2018-12-17T04:05:22.690Z,96.30
2018-12-17T04:07:51.607Z,99.30
2018-12-17T04:10:20.569Z,104.63
2018-12-17T04:12:49.786Z,99.37
2018-12-17T04:15:18.786Z,85.23
2018-12-17T04:17:47.711Z,103.50
2018-12-17T04:20:16.720Z,100.50
2018-12-17T04:22:45.645Z,88.73
2018-12-17T04:25:14.652Z,85.37
2018-12-17T04:27:43.731Z,90.90
2018-12-17T04:30:13.042Z,100.23
2018-12-17T04:32:42.020Z,96.27
2018-12-17T04:35:11.008Z,99.70
2018-12-17T04:37:40.425Z,95.10
2018-12-17T04:40:09.306Z,99.17
2018-12-17T04:42:38.282Z,103.37
2018-12-17T04:45:09.112Z,108.77
2018-12-17T04:47:37.999Z,92.83
2018-12-17T04:50:07.030Z,96.00
2018-12-17T04:52:35.970Z,110.40
2018-12-17T04:55:05.420Z,94.77
2018-12-17T04:57:34.491Z,97.60
2018-12-17T05:00:03.921Z,105.30
2018-12-17T05:02:32.900Z,105.37
2018-12-17T05:05:01.824Z,102.87
2018-12-17T05:07:31.068Z,111.97
2018-12-17T05:10:00.263Z,108.03
2018-12-17T05:12:33.567Z,107.37
2018-12-17T05:15:03.788Z,109.60
2018-12-17T05:17:32.926Z,102.60
2018-12-17T05:20:01.939Z,109.13
2018-12-17T05:22:31.259Z,114.67
2018-12-17T05:25:00.444Z,104.60
2018-12-17T05:27:29.867Z,112.17
2018-12-17T05:29:58.844Z,102.93
2018-12-17T05:32:27.718Z,110.00
2018-12-17T05:34:56.673Z,110.03
2018-12-17T05:37:25.922Z,115.60
2018-12-17T05:39:55.088Z,112.40
2018-12-17T05:42:23.964Z,106.40
2018-12-17T05:44:53.075Z,106.57
2018-12-17T05:47:22.127Z,104.60
2018-12-17T05:49:51.031Z,115.10
2018-12-17T05:52:20.294Z,104.47
2018-12-17T05:54:49.537Z,101.23
2018-12-17T05:57:18.522Z,105.23
2018-12-17T05:59:47.453Z,101.30
2018-12-17T06:02:16.439Z,121.57
2018-12-17T06:04:45.470Z,112.13
2018-12-17T06:07:14.340Z,109.03
2018-12-17T06:09:43.410Z,116.93
2018-12-17T06:12:12.387Z,114.90
2018-12-17T06:14:41.367Z,118.00
2018-12-17T06:17:10.327Z,114.23
2018-12-17T06:19:39.249Z,100.70
2018-12-17T06:22:08.230Z,106.73
2018-12-17T06:24:37.348Z,96.63
2018-12-17T06:27:06.257Z,103.03
2018-12-17T06:29:35.681Z,101.93
2018-12-17T06:32:04.777Z,107.33
2018-12-17T06:34:33.736Z,122.03
2018-12-17T06:37:02.714Z,102.70
2018-12-17T06:39:32.196Z,99.23
2018-12-17T06:42:01.140Z,120.13
2018-12-17T06:44:30.047Z,102.10
2018-12-17T06:46:59.015Z,106.50
2018-12-17T06:49:28.962Z,101.23
2018-12-17T06:51:58.172Z,101.27
2018-12-17T06:54:27.570Z,120.87
2018-12-17T06:56:56.814Z,112.20
2018-12-17T06:59:25.780Z,118.33
2018-12-17T07:01:54.867Z,105.90
2018-12-17T07:04:23.888Z,96.23
2018-12-17T07:06:52.906Z,104.03
2018-12-17T07:09:21.900Z,109.40
2018-12-17T07:11:50.899Z,98.97
2018-12-17T07:14:20.141Z,103.57
2018-12-17T07:16:49.165Z,114.70
2018-12-17T07:19:18.119Z,106.83
2018-12-17T07:21:47.095Z,99.07
2018-12-17T07:24:16.656Z,116.20
2018-12-17T07:26:45.603Z,103.53
2018-12-17T07:29:14.517Z,96.23
2018-12-17T07:31:43.524Z,103.47
2018-12-17T07:34:12.457Z,108.10
2018-12-17T07:36:41.385Z,104.73
2018-12-17T07:39:10.240Z,97.60
2018-12-17T07:41:39.359Z,99.63
2018-12-17T07:44:08.279Z,98.33
2018-12-17T07:46:37.309Z,102.47
2018-12-17T07:49:06.215Z,110.20
2018-12-17T07:51:35.254Z,96.87
2018-12-17T07:54:05.195Z,110.53
2018-12-17T07:56:34.841Z,113.17
2018-12-17T07:59:03.857Z,109.03
2018-12-17T08:01:32.885Z,104.77
2018-12-17T08:04:01.787Z,88.67
2018-12-17T08:06:30.745Z,93.07
2018-12-17T08:09:00.012Z,87.30
2018-12-17T08:11:29.163Z,94.20
2018-12-17T08:13:58.057Z,93.67
2018-12-17T08:16:27.279Z,94.70
2018-12-17T08:18:57.148Z,94.67
2018-12-17T08:21:26.477Z,82.50
2018-12-17T08:23:55.561Z,89.53
2018-12-17T08:26:24.717Z,87.33
2018-12-17T08:28:53.623Z,87.70
2018-12-17T08:31:22.644Z,96.07
2018-12-17T08:33:51.724Z,91.40
2018-12-17T08:36:20.652Z,93.93
2018-12-17T08:38:49.578Z,91.93
2018-12-17T08:41:18.424Z,93.20
2018-12-17T08:43:47.380Z,100.57
2018-12-17T08:46:16.377Z,78.30
2018-12-17T08:48:45.283Z,88.57
2018-12-17T08:51:15.014Z,88.67
2018-12-17T08:53:43.929Z,94.73
2018-12-17T08:56:13.226Z,104.60
2018-12-17T08:58:42.209Z,87.70
2018-12-17T09:01:11.094Z,101.40
2018-12-17T09:03:40.194Z,100.70
2018-12-17T09:06:09.218Z,91.07
2018-12-17T09:08:38.436Z,90.20
2018-12-17T09:11:07.435Z,89.40
2018-12-17T09:13:36.348Z,96.10
2018-12-17T09:16:05.271Z,93.93
2018-12-17T09:18:34.184Z,95.97
2018-12-17T09:21:03.799Z,101.80
2018-12-17T09:23:32.724Z,104.73
2018-12-17T09:26:01.680Z,110.60
2018-12-17T09:28:30.578Z,109.00
2018-12-17T09:30:59.526Z,103.07
2018-12-17T09:33:28.760Z,95.87
2018-12-17T09:35:57.985Z,116.87
2018-12-17T09:38:27.252Z,127.27
2018-12-17T09:40:56.207Z,115.93
2018-12-17T09:43:26.027Z,105.13
2018-12-17T09:45:55.206Z,98.57
2018-12-17T09:48:24.295Z,98.47
2018-12-17T09:50:53.288Z,93.40
2018-12-17T09:53:22.138Z,93.37
2018-12-17T09:55:51.975Z,96.67
2018-12-17T09:58:20.949Z,85.53
2018-12-17T10:00:50.229Z,91.93
2018-12-17T10:03:19.156Z,98.93
2018-12-17T10:05:48.099Z,96.10
2018-12-17T10:08:17.061Z,79.60
2018-12-17T10:10:45.989Z,83.23
2018-12-17T10:13:14.940Z,94.70
2018-12-17T10:15:43.881Z,83.80
2018-12-17T10:18:13.816Z,87.43
2018-12-17T10:20:42.867Z,86.63
2018-12-17T10:23:11.800Z,77.47
2018-12-17T10:28:19.936Z,78.40
2018-12-17T10:30:48.801Z,77.83
2018-12-17T10:33:17.772Z,75.63
2018-12-17T10:35:46.810Z,77.83
2018-12-17T10:38:15.754Z,75.17
2018-12-17T10:40:45.027Z,77.43
2018-12-17T10:43:14.346Z,75.20
2018-12-17T10:45:43.345Z,65.40
2018-12-17T10:48:13.488Z,62.13
2018-12-17T10:50:42.337Z,67.20
2018-12-17T10:53:11.259Z,68.87
2018-12-17T10:55:40.176Z,66.10
2018-12-17T10:58:09.158Z,64.57
2018-12-17T11:00:43.752Z,64.67
2018-12-17T11:03:17.187Z,66.00
2018-12-17T11:05:46.783Z,66.43
2018-12-17T11:08:15.966Z,58.37
2018-12-17T11:10:44.998Z,51.67
2018-12-17T11:13:13.892Z,54.33
2018-12-17T11:15:42.773Z,53.00
2018-12-17T11:18:11.694Z,53.47
2018-12-17T11:20:40.998Z,49.40
2018-12-17T11:23:10.914Z,49.80
2018-12-17T11:25:39.825Z,45.23
2018-12-17T11:28:08.870Z,47.70
2018-12-17T11:30:37.840Z,48.37
2018-12-17T11:33:06.871Z,51.33
2018-12-17T11:35:35.826Z,45.90
2018-12-17T11:38:04.856Z,46.70
2018-12-17T11:40:33.850Z,44.13
2018-12-17T11:43:02.774Z,42.57
2018-12-17T11:45:31.670Z,40.33
2018-12-17T11:48:00.732Z,43.20
2018-12-17T11:50:29.671Z,41.63
2018-12-17T11:52:58.636Z,38.47
2018-12-17T11:55:27.687Z,45.83
2018-12-17T11:58:15.220Z,40.20
2018-12-17T12:01:03.824Z,45.77
2018-12-17T12:03:36.614Z,45.63
2018-12-17T12:06:05.902Z,45.53
2018-12-17T12:08:34.880Z,42.67
2018-12-17T12:11:04.145Z,41.50
2018-12-17T12:13:33.046Z,43.87
2018-12-17T12:16:02.106Z,47.43
2018-12-17T12:18:31.115Z,37.40
2018-12-17T12:21:00.062Z,39.43
2018-12-17T12:23:29.126Z,38.43
2018-12-17T12:25:58.125Z,39.70
2018-12-17T12:28:27.012Z,39.87
2018-12-17T12:31:00.444Z,38.80
2018-12-17T12:33:27.508Z,36.43
2018-12-17T12:35:58.448Z,35.20
2018-12-17T12:38:34.068Z,33.40
2018-12-17T12:41:04.033Z,31.77
2018-12-17T12:43:33.401Z,35.43
2018-12-17T12:46:02.768Z,39.50
2018-12-17T12:48:32.360Z,36.87
2018-12-17T12:51:02.939Z,34.77
2018-12-17T12:53:32.011Z,36.10
2018-12-17T12:56:01.505Z,38.53
2018-12-17T12:58:30.605Z,34.20
2018-12-17T13:01:07.383Z,32.60
2018-12-17T13:03:32.476Z,36.57
2018-12-17T13:06:02.054Z,35.33
2018-12-17T13:08:32.231Z,36.60
2018-12-17T13:11:01.216Z,36.03
2018-12-17T13:13:30.166Z,34.53
2018-12-17T13:15:59.337Z,30.80
2018-12-17T13:18:29.580Z,33.13
2018-12-17T13:20:59.534Z,26.03
2018-12-17T13:23:28.447Z,29.77
2018-12-17T13:25:57.575Z,33.23
2018-12-17T13:28:26.538Z,28.67
2018-12-17T13:30:55.895Z,36.23
2018-12-17T13:33:25.540Z,29.17
2018-12-17T13:35:55.048Z,26.83
2018-12-17T13:38:24.660Z,29.93
2018-12-17T13:40:55.630Z,27.53
2018-12-17T13:43:24.789Z,31.50
2018-12-17T13:45:53.874Z,33.37
2018-12-17T13:48:23.165Z,25.53
2018-12-17T13:50:52.107Z,27.30
2018-12-17T13:53:26.913Z,31.97
2018-12-17T13:55:56.583Z,28.13
2018-12-17T13:58:27.375Z,31.67
2018-12-17T14:00:56.279Z,26.83
2018-12-17T14:03:25.174Z,26.93
2018-12-17T14:05:54.322Z,28.83
2018-12-17T14:08:23.347Z,27.23
2018-12-17T14:10:54.054Z,31.03
2018-12-17T14:13:23.436Z,27.30
2018-12-17T14:15:57.816Z,29.43
2018-12-17T14:18:32.810Z,28.30
2018-12-17T14:21:07.403Z,30.30
2018-12-17T14:23:36.983Z,28.27
2018-12-17T14:26:07.261Z,25.37
2018-12-17T14:28:36.853Z,28.13
2018-12-17T14:31:06.398Z,27.77
2018-12-17T14:33:35.771Z,24.00
2018-12-17T14:36:08.536Z,30.33
2018-12-17T14:38:39.675Z,26.20
2018-12-17T14:41:10.197Z,30.37
2018-12-17T14:43:40.401Z,29.67
2018-12-17T14:46:09.558Z,25.77
2018-12-17T14:48:39.346Z,25.20
2018-12-17T14:51:09.404Z,25.63
2018-12-17T14:53:38.806Z,28.33
2018-12-17T14:56:08.680Z,23.77
2018-12-17T14:58:44.256Z,22.33
2018-12-17T15:01:08.892Z,27.57
2018-12-17T15:03:38.282Z,22.77
2018-12-17T15:06:07.212Z,24.63
2018-12-17T15:08:36.094Z,27.13
2018-12-17T15:11:05.391Z,23.37
2018-12-17T15:13:34.318Z,25.37
2018-12-17T15:16:03.199Z,28.40
2018-12-17T15:18:32.042Z,24.33
2018-12-17T15:21:01.257Z,25.23
2018-12-17T15:23:30.147Z,21.93
2018-12-17T15:25:59.487Z,25.00
2018-12-17T15:28:28.645Z,25.00
2018-12-17T15:30:57.726Z,22.80
2018-12-17T15:33:26.625Z,23.23
2018-12-17T15:35:55.962Z,25.67
2018-12-17T15:38:24.990Z,25.27
2018-12-17T15:40:53.961Z,21.87
2018-12-17T15:43:22.974Z,24.13
2018-12-17T15:45:51.896Z,21.17
2018-12-17T15:48:21.115Z,25.23
2018-12-17T15:50:50.517Z,29.20
2018-12-17T15:53:19.412Z,21.50
2018-12-17T15:55:48.645Z,26.90
2018-12-17T15:58:17.579Z,23.27
2018-12-17T16:00:46.588Z,28.70
2018-12-17T16:03:15.646Z,20.77
2018-12-17T16:05:44.546Z,20.77
2018-12-17T16:08:13.425Z,24.93
2018-12-17T16:10:42.496Z,24.27
2018-12-17T16:13:11.411Z,26.00
2018-12-17T16:15:40.382Z,27.33
2018-12-17T16:18:09.354Z,25.43
2018-12-17T16:20:38.317Z,25.90
2018-12-17T16:23:07.255Z,21.57
2018-12-17T16:25:36.210Z,24.60
2018-12-17T16:28:05.214Z,23.97
2018-12-17T16:30:34.104Z,28.47
2018-12-17T16:33:03.071Z,26.60
2018-12-17T16:35:31.991Z,26.90
2018-12-17T16:38:01.377Z,25.97
2018-12-17T16:40:30.808Z,26.97
2018-12-17T16:43:00.272Z,26.27
2018-12-17T16:45:29.170Z,25.67
2018-12-17T16:47:58.316Z,24.10
2018-12-17T16:50:27.248Z,26.33
2018-12-17T16:52:56.502Z,26.10
2018-12-17T16:55:25.496Z,25.80
2018-12-17T16:57:54.555Z,28.40
2018-12-17T17:00:23.462Z,23.87
2018-12-17T17:02:52.953Z,24.80
2018-12-17T17:05:22.027Z,29.00
2018-12-17T17:07:50.973Z,26.50
2018-12-17T17:10:20.304Z,28.20
2018-12-17T17:12:49.261Z,27.50
2018-12-17T17:15:18.233Z,30.83
2018-12-17T17:17:47.267Z,37.30
2018-12-17T17:20:16.427Z,32.83
2018-12-17T17:22:45.348Z,29.60
2018-12-17T17:25:14.303Z,35.60
2018-12-17T17:27:43.156Z,27.63
2018-12-17T17:30:12.306Z,29.20
2018-12-17T17:32:41.242Z,30.83
2018-12-17T17:35:10.209Z,36.93
2018-12-17T17:37:39.162Z,30.03
2018-12-17T17:40:08.317Z,35.90
2018-12-17T17:42:37.257Z,35.53
2018-12-17T17:45:06.683Z,35.03
2018-12-17T17:47:35.728Z,31.07
2018-12-17T17:50:05.524Z,35.67
2018-12-17T17:52:34.459Z,32.33
2018-12-17T17:55:03.574Z,38.67
2018-12-17T17:57:32.510Z,37.17
2018-12-17T18:00:01.736Z,42.80
2018-12-17T18:02:31.103Z,43.83
2018-12-17T18:05:00.558Z,46.57
2018-12-17T18:07:29.533Z,41.23
2018-12-17T18:09:58.416Z,43.93
2018-12-17T18:12:27.571Z,44.23
2018-12-17T18:14:56.876Z,47.17
2018-12-17T18:17:26.133Z,45.27
2018-12-17T18:19:55.340Z,47.97
2018-12-17T18:22:24.240Z,44.17
2018-12-17T18:24:53.348Z,43.87
2018-12-17T18:27:22.758Z,43.47
2018-12-17T18:29:51.806Z,55.93
2018-12-17T18:32:25.948Z,48.97
2018-12-17T18:34:51.766Z,47.60
2018-12-17T18:37:20.610Z,51.17
2018-12-17T18:39:49.510Z,48.83
2018-12-17T18:42:19.138Z,49.00
2018-12-17T18:44:48.151Z,44.23
2018-12-17T18:47:17.027Z,50.57
2018-12-17T18:49:45.978Z,50.10
2018-12-17T18:52:14.869Z,52.23
2018-12-17T18:54:44.189Z,50.27
2018-12-17T18:57:13.119Z,53.87
2018-12-17T18:59:42.022Z,50.57
2018-12-17T19:02:11.168Z,51.97
2018-12-17T19:04:40.093Z,53.47
2018-12-17T19:07:09.188Z,53.03
2018-12-17T19:09:38.434Z,49.10
2018-12-17T19:12:08.831Z,51.30
2018-12-17T19:14:37.754Z,56.10
2018-12-17T19:17:06.646Z,55.90
2018-12-17T19:19:36.443Z,59.00
2018-12-17T19:22:05.607Z,52.50
2018-12-17T19:24:34.553Z,52.47
2018-12-17T19:27:03.506Z,53.57
2018-12-17T19:29:32.400Z,59.37
2018-12-17T19:32:02.618Z,59.33
2018-12-17T19:34:31.641Z,56.17
2018-12-17T19:37:00.569Z,53.23
2018-12-17T19:39:29.906Z,55.47
2018-12-17T19:41:58.811Z,53.40
2018-12-17T19:44:29.112Z,52.27
2018-12-17T19:46:58.013Z,59.07
2018-12-17T19:49:26.966Z,54.80
2018-12-17T19:51:55.842Z,57.30
2018-12-17T19:54:24.820Z,194.27
2018-12-17T19:56:53.709Z,264.93
2018-12-17T19:59:22.677Z,61.13
2018-12-17T20:01:51.611Z,52.57
2018-12-17T20:04:20.508Z,54.37
2018-12-17T20:06:49.484Z,52.43
2018-12-17T20:09:19.184Z,47.93
2018-12-17T20:11:48.181Z,53.27
2018-12-17T20:14:17.687Z,52.57
2018-12-17T20:16:46.692Z,54.57
2018-12-17T20:19:15.613Z,54.17
2018-12-17T20:21:44.633Z,54.07
2018-12-17T20:24:13.824Z,52.97
2018-12-17T20:26:42.895Z,51.97
2018-12-17T20:29:12.705Z,58.17
2018-12-17T20:31:41.838Z,49.73
2018-12-17T20:34:11.819Z,48.40
2018-12-17T20:36:41.440Z,51.60
2018-12-17T20:39:10.403Z,50.23
2018-12-17T20:41:39.695Z,52.00
2018-12-17T20:44:09.416Z,48.73
2018-12-17T20:46:38.580Z,47.73
2018-12-17T20:49:08.428Z,54.43
2018-12-17T20:51:37.705Z,51.00
2018-12-17T20:54:06.690Z,47.67
2018-12-17T20:56:35.747Z,46.40
2018-12-17T20:59:04.671Z,50.60
2018-12-17T21:01:33.660Z,50.53
2018-12-17T21:04:02.838Z,46.10
2018-12-17T21:06:31.736Z,46.73
2018-12-17T21:09:00.630Z,52.00
2018-12-17T21:11:29.564Z,50.10
2018-12-17T21:13:58.552Z,49.73
2018-12-17T21:16:27.527Z,45.83
2018-12-17T21:18:56.543Z,48.87
2018-12-17T21:21:25.749Z,50.27
2018-12-17T21:23:54.611Z,42.83
2018-12-17T21:26:23.675Z,45.53
2018-12-17T21:28:52.601Z,54.60
2018-12-17T21:31:21.918Z,44.40
2018-12-17T21:33:50.970Z,48.83
2018-12-17T21:36:20.375Z,43.87
2018-12-17T21:38:49.374Z,44.03
2018-12-17T21:41:19.475Z,51.03
2018-12-17T21:43:48.383Z,42.97
2018-12-17T21:46:17.293Z,42.00
2018-12-17T21:48:46.560Z,47.30
2018-12-17T21:51:16.238Z,48.17
2018-12-17T21:53:45.164Z,41.47
2018-12-17T21:56:14.171Z,42.10
2018-12-17T21:58:43.846Z,48.37
2018-12-17T22:01:13.338Z,45.77
2018-12-17T22:03:42.643Z,41.07
2018-12-17T22:06:11.612Z,44.57
2018-12-17T22:08:40.452Z,43.80
2018-12-17T22:11:09.411Z,43.13
2018-12-17T22:13:38.660Z,43.63
2018-12-17T22:16:07.933Z,41.30
2018-12-17T22:18:37.232Z,46.13
2018-12-17T22:21:06.770Z,43.30
2018-12-17T22:23:37.340Z,41.27
2018-12-17T22:26:06.201Z,56.03
2018-12-17T22:28:35.204Z,44.43
2018-12-17T22:31:04.203Z,45.00
2018-12-17T22:33:33.108Z,47.40
2018-12-17T22:36:02.669Z,47.37
2018-12-17T22:38:31.580Z,41.93
2018-12-17T22:41:00.895Z,49.13
2018-12-17T22:43:29.800Z,43.47
2018-12-17T22:45:58.913Z,43.27
2018-12-17T22:48:28.231Z,46.33
2018-12-17T22:50:57.370Z,48.03
2018-12-17T22:53:26.294Z,40.93
2018-12-17T22:55:56.103Z,42.60
2018-12-17T22:58:24.983Z,45.63
2018-12-17T23:00:54.174Z,44.17
2018-12-17T23:03:26.316Z,38.80
2018-12-17T23:05:54.177Z,41.50
2018-12-17T23:08:23.051Z,48.27
2018-12-17T23:11:08.651Z,51.17
2018-12-17T23:13:54.269Z,41.30
2018-12-17T23:16:40.067Z,40.60
2018-12-17T23:19:07.107Z,41.57
2018-12-17T23:21:36.175Z,43.87
2018-12-17T23:24:05.620Z,41.87
2018-12-17T23:26:34.606Z,40.33
2018-12-17T23:29:03.978Z,40.43
2018-12-17T23:31:33.603Z,44.30
2018-12-17T23:34:02.657Z,37.73
2018-12-17T23:36:31.899Z,41.87
2018-12-17T23:39:00.806Z,45.60
2018-12-17T23:41:29.879Z,43.33
2018-12-17T23:43:58.975Z,41.47
2018-12-17T23:46:27.930Z,41.90
2018-12-17T23:48:57.155Z,46.07
2018-12-17T23:51:26.210Z,45.23
2018-12-17T23:53:55.105Z,49.57
2018-12-17T23:56:24.106Z,42.40
2018-12-17T23:58:53.019Z,44.77
